Terminal Aerodrome Forecast
Issued by NWS

Home | Current Version | Previous Version | Text Only | Print | Product List | Glossary Off
Versions: 1 2 3 4 5 6 7 8 9 10 11 12 13

000
FTUS42 KMHX 201700 RRA
TAFPGV
TAF
KPGV 201751Z 2018/2118 24009G15KT P6SM SKC
     FM202200 24004KT P6SM SKC
     FM210600 35006KT P6SM SKC
      AMD LTD TO CLD VIS AND WIND=

USA.gov is the U.S. government's official web portal to all federal, state and local government web resources and services.